sensor_id;sensor_type;location;lat;lon;timestamp;P1;durP1;ratioP1;P2;durP2;ratioP2
2035;SDS011;23642;42.658;23.350;2024-01-25T00:01:25;132.73;;;123.37;;
2035;SDS011;23642;42.658;23.350;2024-01-25T00:03:52;135.07;;;126.07;;
2035;SDS011;23642;42.658;23.350;2024-01-25T00:06:19;133.87;;;124.87;;
2035;SDS011;23642;42.658;23.350;2024-01-25T00:08:47;134.33;;;125.43;;
2035;SDS011;23642;42.658;23.350;2024-01-25T00:11:14;134.90;;;125.50;;
2035;SDS011;23642;42.658;23.350;2024-01-25T00:13:42;137.67;;;128.27;;
2035;SDS011;23642;42.658;23.350;2024-01-25T00:16:08;133.80;;;124.57;;
2035;SDS011;23642;42.658;23.350;2024-01-25T00:18:35;134.77;;;125.47;;
2035;SDS011;23642;42.658;23.350;2024-01-25T00:21:02;132.50;;;123.63;;
2035;SDS011;23642;42.658;23.350;2024-01-25T00:23:29;131.90;;;122.97;;
2035;SDS011;23642;42.658;23.350;2024-01-25T00:25:57;129.37;;;120.60;;
2035;SDS011;23642;42.658;23.350;2024-01-25T00:28:25;130.73;;;122.40;;
2035;SDS011;23642;42.658;23.350;2024-01-25T00:30:53;128.80;;;120.30;;
2035;SDS011;23642;42.658;23.350;2024-01-25T00:33:20;129.93;;;121.33;;
2035;SDS011;23642;42.658;23.350;2024-01-25T00:35:47;127.00;;;118.50;;
2035;SDS011;23642;42.658;23.350;2024-01-25T00:38:14;127.80;;;119.60;;
2035;SDS011;23642;42.658;23.350;2024-01-25T00:40:42;126.00;;;117.60;;
2035;SDS011;23642;42.658;23.350;2024-01-25T00:43:11;127.07;;;118.70;;
2035;SDS011;23642;42.658;23.350;2024-01-25T00:45:40;130.43;;;121.87;;
2035;SDS011;23642;42.658;23.350;2024-01-25T00:48:08;126.27;;;117.93;;
2035;SDS011;23642;42.658;23.350;2024-01-25T00:50:37;127.47;;;119.23;;
2035;SDS011;23642;42.658;23.350;2024-01-25T00:53:05;128.10;;;119.80;;
2035;SDS011;23642;42.658;23.350;2024-01-25T00:55:32;125.90;;;117.70;;
2035;SDS011;23642;42.658;23.350;2024-01-25T00:58:00;129.60;;;121.00;;
2035;SDS011;23642;42.658;23.350;2024-01-25T01:00:29;129.57;;;120.97;;
2035;SDS011;23642;42.658;23.350;2024-01-25T01:02:56;130.17;;;121.47;;
2035;SDS011;23642;42.658;23.350;2024-01-25T01:05:25;130.87;;;122.57;;
2035;SDS011;23642;42.658;23.350;2024-01-25T01:07:53;131.67;;;122.83;;
2035;SDS011;23642;42.658;23.350;2024-01-25T01:10:20;132.57;;;123.30;;
2035;SDS011;23642;42.658;23.350;2024-01-25T01:12:46;132.97;;;123.80;;
2035;SDS011;23642;42.658;23.350;2024-01-25T01:15:14;128.60;;;120.23;;
2035;SDS011;23642;42.658;23.350;2024-01-25T01:17:57;128.67;;;120.17;;
2035;SDS011;23642;42.658;23.350;2024-01-25T01:20:23;130.60;;;122.00;;
2035;SDS011;23642;42.658;23.350;2024-01-25T01:22:51;133.50;;;124.43;;
2035;SDS011;23642;42.658;23.350;2024-01-25T01:25:18;134.80;;;125.27;;
2035;SDS011;23642;42.658;23.350;2024-01-25T01:27:45;134.90;;;125.70;;
2035;SDS011;23642;42.658;23.350;2024-01-25T01:30:12;133.57;;;124.27;;
2035;SDS011;23642;42.658;23.350;2024-01-25T01:32:39;132.43;;;123.30;;
2035;SDS011;23642;42.658;23.350;2024-01-25T01:35:08;133.53;;;124.37;;
2035;SDS011;23642;42.658;23.350;2024-01-25T01:37:34;135.23;;;125.13;;
2035;SDS011;23642;42.658;23.350;2024-01-25T01:40:01;135.50;;;125.50;;
2035;SDS011;23642;42.658;23.350;2024-01-25T01:42:31;136.17;;;126.60;;
2035;SDS011;23642;42.658;23.350;2024-01-25T01:44:59;135.17;;;125.93;;
2035;SDS011;23642;42.658;23.350;2024-01-25T01:47:25;135.23;;;125.80;;
2035;SDS011;23642;42.658;23.350;2024-01-25T01:49:53;129.67;;;121.13;;
2035;SDS011;23642;42.658;23.350;2024-01-25T01:52:21;134.23;;;125.33;;
2035;SDS011;23642;42.658;23.350;2024-01-25T01:54:48;132.23;;;123.47;;
2035;SDS011;23642;42.658;23.350;2024-01-25T01:57:15;129.37;;;120.43;;
2035;SDS011;23642;42.658;23.350;2024-01-25T01:59:42;131.37;;;122.40;;
2035;SDS011;23642;42.658;23.350;2024-01-25T02:02:10;131.77;;;122.87;;
2035;SDS011;23642;42.658;23.350;2024-01-25T02:04:36;134.23;;;124.80;;
2035;SDS011;23642;42.658;23.350;2024-01-25T02:07:04;134.20;;;124.97;;
2035;SDS011;23642;42.658;23.350;2024-01-25T02:09:32;133.37;;;123.20;;
2035;SDS011;23642;42.658;23.350;2024-01-25T02:12:01;136.40;;;127.10;;
2035;SDS011;23642;42.658;23.350;2024-01-25T02:14:28;135.17;;;126.07;;
2035;SDS011;23642;42.658;23.350;2024-01-25T02:16:55;133.60;;;124.80;;
2035;SDS011;23642;42.658;23.350;2024-01-25T02:19:22;132.10;;;123.20;;
2035;SDS011;23642;42.658;23.350;2024-01-25T02:21:49;136.43;;;126.43;;
2035;SDS011;23642;42.658;23.350;2024-01-25T02:24:21;131.33;;;122.90;;
2035;SDS011;23642;42.658;23.350;2024-01-25T02:26:48;131.97;;;123.37;;
2035;SDS011;23642;42.658;23.350;2024-01-25T02:29:15;128.77;;;120.37;;
2035;SDS011;23642;42.658;23.350;2024-01-25T02:31:42;130.33;;;121.80;;
2035;SDS011;23642;42.658;23.350;2024-01-25T02:34:09;132.13;;;123.60;;
2035;SDS011;23642;42.658;23.350;2024-01-25T02:36:36;127.30;;;119.23;;
2035;SDS011;23642;42.658;23.350;2024-01-25T02:39:03;132.17;;;123.57;;
2035;SDS011;23642;42.658;23.350;2024-01-25T02:41:32;131.23;;;122.63;;
2035;SDS011;23642;42.658;23.350;2024-01-25T02:43:59;129.10;;;120.90;;
2035;SDS011;23642;42.658;23.350;2024-01-25T02:46:26;131.17;;;122.50;;
2035;SDS011;23642;42.658;23.350;2024-01-25T02:48:53;127.73;;;119.27;;
2035;SDS011;23642;42.658;23.350;2024-01-25T02:51:20;127.83;;;119.67;;
2035;SDS011;23642;42.658;23.350;2024-01-25T02:53:47;130.37;;;121.73;;
2035;SDS011;23642;42.658;23.350;2024-01-25T02:56:14;128.87;;;120.57;;
2035;SDS011;23642;42.658;23.350;2024-01-25T02:58:42;127.40;;;118.90;;
2035;SDS011;23642;42.658;23.350;2024-01-25T03:01:09;125.90;;;117.90;;
2035;SDS011;23642;42.658;23.350;2024-01-25T03:03:36;128.47;;;120.37;;
2035;SDS011;23642;42.658;23.350;2024-01-25T03:06:05;128.03;;;119.37;;
2035;SDS011;23642;42.658;23.350;2024-01-25T03:08:32;126.17;;;118.00;;
2035;SDS011;23642;42.658;23.350;2024-01-25T03:10:59;126.10;;;117.97;;
2035;SDS011;23642;42.658;23.350;2024-01-25T03:13:28;116.63;;;109.77;;
2035;SDS011;23642;42.658;23.350;2024-01-25T03:15:57;116.03;;;109.33;;
2035;SDS011;23642;42.658;23.350;2024-01-25T03:18:23;113.47;;;107.07;;
2035;SDS011;23642;42.658;23.350;2024-01-25T03:20:50;115.87;;;109.07;;
2035;SDS011;23642;42.658;23.350;2024-01-25T03:23:17;117.90;;;111.03;;
2035;SDS011;23642;42.658;23.350;2024-01-25T03:25:44;116.37;;;109.57;;
2035;SDS011;23642;42.658;23.350;2024-01-25T03:28:11;116.47;;;109.87;;
2035;SDS011;23642;42.658;23.350;2024-01-25T03:30:41;118.40;;;111.80;;
2035;SDS011;23642;42.658;23.350;2024-01-25T03:33:09;118.23;;;111.57;;
2035;SDS011;23642;42.658;23.350;2024-01-25T03:35:36;120.13;;;113.40;;
2035;SDS011;23642;42.658;23.350;2024-01-25T03:38:04;117.20;;;110.60;;
2035;SDS011;23642;42.658;23.350;2024-01-25T03:43:52;119.83;;;113.03;;
2035;SDS011;23642;42.658;23.350;2024-01-25T03:46:19;120.20;;;113.40;;
2035;SDS011;23642;42.658;23.350;2024-01-25T03:48:47;119.60;;;112.90;;
2035;SDS011;23642;42.658;23.350;2024-01-25T03:51:14;123.00;;;116.20;;
2035;SDS011;23642;42.658;23.350;2024-01-25T03:53:41;120.83;;;113.70;;
2035;SDS011;23642;42.658;23.350;2024-01-25T03:56:10;120.13;;;113.33;;
2035;SDS011;23642;42.658;23.350;2024-01-25T03:58:38;122.03;;;115.13;;
2035;SDS011;23642;42.658;23.350;2024-01-25T04:01:05;120.23;;;113.53;;
2035;SDS011;23642;42.658;23.350;2024-01-25T04:03:32;120.90;;;114.00;;
2035;SDS011;23642;42.658;23.350;2024-01-25T04:06:01;122.83;;;115.90;;
2035;SDS011;23642;42.658;23.350;2024-01-25T04:08:28;121.30;;;114.50;;
2035;SDS011;23642;42.658;23.350;2024-01-25T04:10:55;121.47;;;114.57;;
2035;SDS011;23642;42.658;23.350;2024-01-25T04:13:21;121.37;;;114.57;;
2035;SDS011;23642;42.658;23.350;2024-01-25T04:15:48;121.57;;;114.77;;
2035;SDS011;23642;42.658;23.350;2024-01-25T04:18:15;123.20;;;116.20;;
2035;SDS011;23642;42.658;23.350;2024-01-25T04:20:43;122.13;;;115.13;;
2035;SDS011;23642;42.658;23.350;2024-01-25T04:23:12;120.27;;;113.47;;
2035;SDS011;23642;42.658;23.350;2024-01-25T04:25:38;122.73;;;115.83;;
2035;SDS011;23642;42.658;23.350;2024-01-25T04:28:05;121.90;;;115.00;;
2035;SDS011;23642;42.658;23.350;2024-01-25T04:30:32;122.50;;;115.60;;
2035;SDS011;23642;42.658;23.350;2024-01-25T04:32:59;122.63;;;115.63;;
2035;SDS011;23642;42.658;23.350;2024-01-25T04:35:26;126.37;;;119.17;;
2035;SDS011;23642;42.658;23.350;2024-01-25T04:37:53;125.83;;;118.73;;
2035;SDS011;23642;42.658;23.350;2024-01-25T04:40:21;126.30;;;118.90;;
2035;SDS011;23642;42.658;23.350;2024-01-25T04:42:48;125.10;;;117.90;;
2035;SDS011;23642;42.658;23.350;2024-01-25T04:45:14;127.40;;;119.70;;
2035;SDS011;23642;42.658;23.350;2024-01-25T04:47:41;127.67;;;120.17;;
2035;SDS011;23642;42.658;23.350;2024-01-25T04:50:08;126.83;;;119.40;;
2035;SDS011;23642;42.658;23.350;2024-01-25T04:52:35;128.00;;;120.70;;
2035;SDS011;23642;42.658;23.350;2024-01-25T04:55:02;127.60;;;120.17;;
2035;SDS011;23642;42.658;23.350;2024-01-25T04:57:30;128.67;;;121.20;;
2035;SDS011;23642;42.658;23.350;2024-01-25T04:59:57;128.60;;;121.10;;
2035;SDS011;23642;42.658;23.350;2024-01-25T05:02:24;126.87;;;119.50;;
2035;SDS011;23642;42.658;23.350;2024-01-25T05:04:51;127.90;;;120.50;;
2035;SDS011;23642;42.658;23.350;2024-01-25T05:07:17;129.10;;;121.43;;
2035;SDS011;23642;42.658;23.350;2024-01-25T05:09:44;130.10;;;122.30;;
2035;SDS011;23642;42.658;23.350;2024-01-25T05:12:11;133.63;;;125.77;;
2035;SDS011;23642;42.658;23.350;2024-01-25T05:14:40;130.77;;;123.27;;
2035;SDS011;23642;42.658;23.350;2024-01-25T05:17:07;131.00;;;123.40;;
2035;SDS011;23642;42.658;23.350;2024-01-25T05:19:34;130.93;;;123.27;;
2035;SDS011;23642;42.658;23.350;2024-01-25T05:22:01;128.87;;;121.40;;
2035;SDS011;23642;42.658;23.350;2024-01-25T05:24:31;129.77;;;122.30;;
2035;SDS011;23642;42.658;23.350;2024-01-25T05:26:58;130.80;;;123.00;;
2035;SDS011;23642;42.658;23.350;2024-01-25T05:29:25;131.43;;;123.90;;
2035;SDS011;23642;42.658;23.350;2024-01-25T05:31:53;130.30;;;122.37;;
2035;SDS011;23642;42.658;23.350;2024-01-25T05:34:21;129.83;;;122.03;;
2035;SDS011;23642;42.658;23.350;2024-01-25T05:36:48;129.63;;;122.23;;
2035;SDS011;23642;42.658;23.350;2024-01-25T05:39:14;132.27;;;124.57;;
2035;SDS011;23642;42.658;23.350;2024-01-25T05:41:42;131.83;;;124.10;;
2035;SDS011;23642;42.658;23.350;2024-01-25T05:44:10;128.87;;;121.00;;
2035;SDS011;23642;42.658;23.350;2024-01-25T05:46:37;130.90;;;123.50;;
2035;SDS011;23642;42.658;23.350;2024-01-25T05:49:07;132.73;;;125.07;;
2035;SDS011;23642;42.658;23.350;2024-01-25T05:51:34;130.83;;;123.17;;
2035;SDS011;23642;42.658;23.350;2024-01-25T05:54:01;131.83;;;124.03;;
2035;SDS011;23642;42.658;23.350;2024-01-25T05:56:28;135.03;;;127.13;;
2035;SDS011;23642;42.658;23.350;2024-01-25T05:58:55;132.10;;;124.20;;
2035;SDS011;23642;42.658;23.350;2024-01-25T06:01:21;132.57;;;124.67;;
2035;SDS011;23642;42.658;23.350;2024-01-25T06:03:48;131.53;;;123.90;;
2035;SDS011;23642;42.658;23.350;2024-01-25T06:06:16;137.30;;;129.10;;
2035;SDS011;23642;42.658;23.350;2024-01-25T06:08:43;138.20;;;130.00;;
2035;SDS011;23642;42.658;23.350;2024-01-25T06:11:09;137.10;;;128.90;;
2035;SDS011;23642;42.658;23.350;2024-01-25T06:13:36;134.17;;;126.20;;
2035;SDS011;23642;42.658;23.350;2024-01-25T06:16:04;131.83;;;124.03;;
2035;SDS011;23642;42.658;23.350;2024-01-25T06:18:31;132.83;;;125.07;;
2035;SDS011;23642;42.658;23.350;2024-01-25T06:20:58;132.40;;;124.70;;
2035;SDS011;23642;42.658;23.350;2024-01-25T06:23:26;131.23;;;123.47;;
2035;SDS011;23642;42.658;23.350;2024-01-25T06:25:53;131.37;;;123.60;;
2035;SDS011;23642;42.658;23.350;2024-01-25T06:28:19;131.83;;;124.13;;
2035;SDS011;23642;42.658;23.350;2024-01-25T06:30:46;131.43;;;123.67;;
2035;SDS011;23642;42.658;23.350;2024-01-25T06:33:13;128.93;;;121.33;;
2035;SDS011;23642;42.658;23.350;2024-01-25T06:35:40;129.93;;;121.90;;
2035;SDS011;23642;42.658;23.350;2024-01-25T06:38:06;132.07;;;124.27;;
2035;SDS011;23642;42.658;23.350;2024-01-25T06:40:34;129.30;;;121.80;;
2035;SDS011;23642;42.658;23.350;2024-01-25T06:43:01;131.30;;;123.67;;
2035;SDS011;23642;42.658;23.350;2024-01-25T06:45:29;131.57;;;123.97;;
2035;SDS011;23642;42.658;23.350;2024-01-25T06:47:55;133.97;;;125.60;;
2035;SDS011;23642;42.658;23.350;2024-01-25T06:50:22;131.23;;;123.63;;
2035;SDS011;23642;42.658;23.350;2024-01-25T06:52:49;131.67;;;123.97;;
2035;SDS011;23642;42.658;23.350;2024-01-25T06:55:18;133.80;;;126.00;;
2035;SDS011;23642;42.658;23.350;2024-01-25T06:57:47;132.37;;;124.30;;
2035;SDS011;23642;42.658;23.350;2024-01-25T07:00:14;134.77;;;126.10;;
2035;SDS011;23642;42.658;23.350;2024-01-25T07:02:41;132.40;;;124.60;;
2035;SDS011;23642;42.658;23.350;2024-01-25T07:05:09;133.10;;;125.10;;
2035;SDS011;23642;42.658;23.350;2024-01-25T07:07:36;131.43;;;123.73;;
2035;SDS011;23642;42.658;23.350;2024-01-25T07:10:05;133.57;;;125.47;;
2035;SDS011;23642;42.658;23.350;2024-01-25T07:12:32;135.80;;;127.40;;
2035;SDS011;23642;42.658;23.350;2024-01-25T07:15:01;135.10;;;126.73;;
2035;SDS011;23642;42.658;23.350;2024-01-25T07:17:28;134.53;;;126.53;;
2035;SDS011;23642;42.658;23.350;2024-01-25T07:19:55;134.63;;;126.43;;
2035;SDS011;23642;42.658;23.350;2024-01-25T07:22:22;133.40;;;125.60;;
2035;SDS011;23642;42.658;23.350;2024-01-25T07:24:49;135.20;;;127.20;;
2035;SDS011;23642;42.658;23.350;2024-01-25T07:27:16;132.77;;;125.00;;
2035;SDS011;23642;42.658;23.350;2024-01-25T07:29:43;134.27;;;126.47;;
2035;SDS011;23642;42.658;23.350;2024-01-25T07:32:13;132.50;;;124.70;;
2035;SDS011;23642;42.658;23.350;2024-01-25T07:34:39;133.17;;;125.10;;
2035;SDS011;23642;42.658;23.350;2024-01-25T07:37:06;134.27;;;126.25;;
2035;SDS011;23642;42.658;23.350;2024-01-25T07:39:33;134.27;;;126.10;;
2035;SDS011;23642;42.658;23.350;2024-01-25T07:41:59;133.33;;;125.53;;
2035;SDS011;23642;42.658;23.350;2024-01-25T07:44:27;134.10;;;126.20;;
2035;SDS011;23642;42.658;23.350;2024-01-25T07:46:54;131.43;;;123.70;;
2035;SDS011;23642;42.658;23.350;2024-01-25T07:49:26;133.67;;;125.77;;
2035;SDS011;23642;42.658;23.350;2024-01-25T07:51:52;132.80;;;124.97;;
2035;SDS011;23642;42.658;23.350;2024-01-25T07:54:23;132.23;;;124.40;;
2035;SDS011;23642;42.658;23.350;2024-01-25T07:56:52;134.53;;;126.80;;
2035;SDS011;23642;42.658;23.350;2024-01-25T07:59:19;138.03;;;129.93;;
2035;SDS011;23642;42.658;23.350;2024-01-25T08:01:45;139.70;;;131.40;;
2035;SDS011;23642;42.658;23.350;2024-01-25T08:04:12;139.90;;;131.50;;
2035;SDS011;23642;42.658;23.350;2024-01-25T08:06:40;137.40;;;129.13;;
2035;SDS011;23642;42.658;23.350;2024-01-25T08:09:07;138.90;;;130.57;;
2035;SDS011;23642;42.658;23.350;2024-01-25T08:11:34;134.80;;;126.30;;
2035;SDS011;23642;42.658;23.350;2024-01-25T08:14:01;133.50;;;125.27;;
2035;SDS011;23642;42.658;23.350;2024-01-25T08:16:32;134.27;;;126.13;;
2035;SDS011;23642;42.658;23.350;2024-01-25T08:19:00;137.80;;;129.50;;
2035;SDS011;23642;42.658;23.350;2024-01-25T08:21:28;139.83;;;131.43;;
2035;SDS011;23642;42.658;23.350;2024-01-25T08:23:56;139.07;;;130.57;;
2035;SDS011;23642;42.658;23.350;2024-01-25T08:26:22;134.23;;;125.90;;
2035;SDS011;23642;42.658;23.350;2024-01-25T08:28:49;136.07;;;127.10;;
2035;SDS011;23642;42.658;23.350;2024-01-25T08:31:16;131.00;;;122.57;;
2035;SDS011;23642;42.658;23.350;2024-01-25T08:33:43;134.00;;;125.50;;
2035;SDS011;23642;42.658;23.350;2024-01-25T08:36:12;135.37;;;127.20;;
2035;SDS011;23642;42.658;23.350;2024-01-25T08:38:39;136.33;;;128.37;;
2035;SDS011;23642;42.658;23.350;2024-01-25T08:41:07;138.77;;;130.57;;
2035;SDS011;23642;42.658;23.350;2024-01-25T08:43:36;136.20;;;126.93;;
2035;SDS011;23642;42.658;23.350;2024-01-25T08:46:05;131.80;;;123.37;;
2035;SDS011;23642;42.658;23.350;2024-01-25T08:48:32;131.80;;;123.40;;
2035;SDS011;23642;42.658;23.350;2024-01-25T08:50:59;131.30;;;123.00;;
2035;SDS011;23642;42.658;23.350;2024-01-25T08:53:26;134.90;;;126.77;;
2035;SDS011;23642;42.658;23.350;2024-01-25T08:55:53;136.90;;;128.50;;
2035;SDS011;23642;42.658;23.350;2024-01-25T08:58:22;133.63;;;125.33;;
2035;SDS011;23642;42.658;23.350;2024-01-25T09:00:49;131.83;;;123.80;;
2035;SDS011;23642;42.658;23.350;2024-01-25T09:03:16;130.77;;;122.60;;
2035;SDS011;23642;42.658;23.350;2024-01-25T09:05:42;128.40;;;119.80;;
2035;SDS011;23642;42.658;23.350;2024-01-25T09:08:11;128.00;;;120.10;;
2035;SDS011;23642;42.658;23.350;2024-01-25T09:10:40;128.03;;;119.93;;
2035;SDS011;23642;42.658;23.350;2024-01-25T09:13:07;128.60;;;120.03;;
2035;SDS011;23642;42.658;23.350;2024-01-25T09:15:36;129.53;;;120.83;;
2035;SDS011;23642;42.658;23.350;2024-01-25T09:18:02;131.40;;;123.10;;
2035;SDS011;23642;42.658;23.350;2024-01-25T09:20:29;131.33;;;122.73;;
2035;SDS011;23642;42.658;23.350;2024-01-25T09:22:56;126.20;;;118.33;;
2035;SDS011;23642;42.658;23.350;2024-01-25T09:25:23;128.73;;;120.80;;
2035;SDS011;23642;42.658;23.350;2024-01-25T09:27:50;129.50;;;121.37;;
2035;SDS011;23642;42.658;23.350;2024-01-25T09:30:17;129.40;;;121.27;;
2035;SDS011;23642;42.658;23.350;2024-01-25T09:32:46;132.17;;;123.20;;
2035;SDS011;23642;42.658;23.350;2024-01-25T09:35:13;131.33;;;123.13;;
2035;SDS011;23642;42.658;23.350;2024-01-25T09:37:39;131.83;;;123.50;;
2035;SDS011;23642;42.658;23.350;2024-01-25T09:40:07;133.80;;;125.60;;
2035;SDS011;23642;42.658;23.350;2024-01-25T09:42:34;134.30;;;126.00;;
2035;SDS011;23642;42.658;23.350;2024-01-25T09:45:02;136.17;;;127.60;;
2035;SDS011;23642;42.658;23.350;2024-01-25T09:47:33;131.83;;;123.50;;
2035;SDS011;23642;42.658;23.350;2024-01-25T09:50:01;130.93;;;122.57;;
2035;SDS011;23642;42.658;23.350;2024-01-25T09:52:29;133.07;;;124.80;;
2035;SDS011;23642;42.658;23.350;2024-01-25T09:54:57;128.27;;;120.40;;
2035;SDS011;23642;42.658;23.350;2024-01-25T09:57:24;133.43;;;124.67;;
2035;SDS011;23642;42.658;23.350;2024-01-25T09:59:54;131.10;;;122.90;;
2035;SDS011;23642;42.658;23.350;2024-01-25T10:02:21;138.30;;;129.60;;
2035;SDS011;23642;42.658;23.350;2024-01-25T10:04:49;136.77;;;128.17;;
2035;SDS011;23642;42.658;23.350;2024-01-25T10:07:34;135.83;;;127.27;;
2035;SDS011;23642;42.658;23.350;2024-01-25T10:10:01;133.47;;;125.03;;
2035;SDS011;23642;42.658;23.350;2024-01-25T10:12:30;133.13;;;124.43;;
2035;SDS011;23642;42.658;23.350;2024-01-25T10:14:56;133.87;;;124.47;;
2035;SDS011;23642;42.658;23.350;2024-01-25T10:17:24;134.73;;;126.00;;
2035;SDS011;23642;42.658;23.350;2024-01-25T10:19:53;130.27;;;121.70;;
2035;SDS011;23642;42.658;23.350;2024-01-25T10:22:22;131.70;;;123.07;;
2035;SDS011;23642;42.658;23.350;2024-01-25T10:24:49;134.87;;;126.13;;
2035;SDS011;23642;42.658;23.350;2024-01-25T10:27:18;135.37;;;126.47;;
2035;SDS011;23642;42.658;23.350;2024-01-25T10:29:46;136.10;;;126.90;;
2035;SDS011;23642;42.658;23.350;2024-01-25T10:32:14;133.10;;;124.70;;
2035;SDS011;23642;42.658;23.350;2024-01-25T10:34:41;131.47;;;123.10;;
2035;SDS011;23642;42.658;23.350;2024-01-25T10:37:11;130.60;;;122.13;;
2035;SDS011;23642;42.658;23.350;2024-01-25T10:39:42;130.70;;;122.30;;
2035;SDS011;23642;42.658;23.350;2024-01-25T10:42:10;131.87;;;123.10;;
2035;SDS011;23642;42.658;23.350;2024-01-25T10:44:37;132.93;;;124.27;;
2035;SDS011;23642;42.658;23.350;2024-01-25T10:47:05;136.57;;;127.27;;
2035;SDS011;23642;42.658;23.350;2024-01-25T10:49:33;135.33;;;126.80;;
2035;SDS011;23642;42.658;23.350;2024-01-25T10:52:01;132.37;;;123.77;;
2035;SDS011;23642;42.658;23.350;2024-01-25T10:54:30;131.33;;;123.10;;
2035;SDS011;23642;42.658;23.350;2024-01-25T10:56:59;132.60;;;124.20;;
2035;SDS011;23642;42.658;23.350;2024-01-25T10:59:26;133.20;;;124.23;;
2035;SDS011;23642;42.658;23.350;2024-01-25T11:01:54;129.43;;;121.10;;
2035;SDS011;23642;42.658;23.350;2024-01-25T11:04:21;129.30;;;120.93;;
2035;SDS011;23642;42.658;23.350;2024-01-25T11:06:49;132.40;;;123.30;;
2035;SDS011;23642;42.658;23.350;2024-01-25T11:09:18;133.27;;;124.33;;
2035;SDS011;23642;42.658;23.350;2024-01-25T11:11:46;135.13;;;126.67;;
2035;SDS011;23642;42.658;23.350;2024-01-25T11:14:15;134.07;;;125.63;;
2035;SDS011;23642;42.658;23.350;2024-01-25T11:16:43;132.50;;;123.90;;
2035;SDS011;23642;42.658;23.350;2024-01-25T11:19:16;129.70;;;121.50;;
2035;SDS011;23642;42.658;23.350;2024-01-25T11:21:44;130.10;;;121.93;;
2035;SDS011;23642;42.658;23.350;2024-01-25T11:24:12;132.73;;;124.13;;
2035;SDS011;23642;42.658;23.350;2024-01-25T11:26:39;132.47;;;123.80;;
2035;SDS011;23642;42.658;23.350;2024-01-25T11:29:06;134.83;;;125.60;;
2035;SDS011;23642;42.658;23.350;2024-01-25T11:31:34;135.60;;;126.90;;
2035;SDS011;23642;42.658;23.350;2024-01-25T11:34:01;134.20;;;125.60;;
2035;SDS011;23642;42.658;23.350;2024-01-25T11:36:28;135.83;;;126.97;;
2035;SDS011;23642;42.658;23.350;2024-01-25T11:38:55;131.90;;;123.60;;
2035;SDS011;23642;42.658;23.350;2024-01-25T11:41:22;131.63;;;123.60;;
2035;SDS011;23642;42.658;23.350;2024-01-25T11:43:49;139.10;;;129.80;;
2035;SDS011;23642;42.658;23.350;2024-01-25T11:46:16;130.37;;;122.07;;
2035;SDS011;23642;42.658;23.350;2024-01-25T11:48:45;132.90;;;124.30;;
2035;SDS011;23642;42.658;23.350;2024-01-25T11:51:12;126.23;;;117.93;;
2035;SDS011;23642;42.658;23.350;2024-01-25T11:53:39;130.73;;;122.43;;
2035;SDS011;23642;42.658;23.350;2024-01-25T11:56:21;125.37;;;117.33;;
2035;SDS011;23642;42.658;23.350;2024-01-25T11:58:54;127.77;;;119.80;;
2035;SDS011;23642;42.658;23.350;2024-01-25T12:01:22;122.50;;;114.30;;
2035;SDS011;23642;42.658;23.350;2024-01-25T12:03:51;126.25;;;117.78;;
2035;SDS011;23642;42.658;23.350;2024-01-25T12:06:18;131.63;;;123.07;;
2035;SDS011;23642;42.658;23.350;2024-01-25T12:08:45;131.50;;;123.10;;
2035;SDS011;23642;42.658;23.350;2024-01-25T12:11:13;130.37;;;122.07;;
2035;SDS011;23642;42.658;23.350;2024-01-25T12:13:40;126.43;;;118.20;;
2035;SDS011;23642;42.658;23.350;2024-01-25T12:16:08;124.63;;;116.23;;
2035;SDS011;23642;42.658;23.350;2024-01-25T12:18:36;126.70;;;118.77;;
2035;SDS011;23642;42.658;23.350;2024-01-25T12:21:05;127.10;;;118.80;;
2035;SDS011;23642;42.658;23.350;2024-01-25T12:23:32;131.73;;;123.10;;
2035;SDS011;23642;42.658;23.350;2024-01-25T12:26:01;134.40;;;125.20;;
2035;SDS011;23642;42.658;23.350;2024-01-25T12:28:30;130.00;;;121.47;;
2035;SDS011;23642;42.658;23.350;2024-01-25T12:34:25;125.63;;;117.50;;
2035;SDS011;23642;42.658;23.350;2024-01-25T12:36:53;126.80;;;118.80;;
2035;SDS011;23642;42.658;23.350;2024-01-25T12:39:20;127.63;;;119.47;;
2035;SDS011;23642;42.658;23.350;2024-01-25T12:41:47;127.60;;;118.90;;
2035;SDS011;23642;42.658;23.350;2024-01-25T12:44:14;126.00;;;117.73;;
2035;SDS011;23642;42.658;23.350;2024-01-25T12:46:41;128.07;;;119.67;;
2035;SDS011;23642;42.658;23.350;2024-01-25T12:49:08;126.63;;;118.53;;
2035;SDS011;23642;42.658;23.350;2024-01-25T12:51:35;124.43;;;116.43;;
2035;SDS011;23642;42.658;23.350;2024-01-25T12:54:03;124.67;;;116.47;;
2035;SDS011;23642;42.658;23.350;2024-01-25T12:56:31;125.40;;;116.93;;
2035;SDS011;23642;42.658;23.350;2024-01-25T12:58:58;126.47;;;118.47;;
2035;SDS011;23642;42.658;23.350;2024-01-25T13:01:25;129.30;;;121.17;;
2035;SDS011;23642;42.658;23.350;2024-01-25T13:03:52;129.83;;;121.43;;
2035;SDS011;23642;42.658;23.350;2024-01-25T13:06:20;124.57;;;116.67;;
2035;SDS011;23642;42.658;23.350;2024-01-25T13:08:47;125.17;;;117.10;;
2035;SDS011;23642;42.658;23.350;2024-01-25T13:11:15;122.70;;;114.90;;
2035;SDS011;23642;42.658;23.350;2024-01-25T13:13:42;123.37;;;115.37;;
2035;SDS011;23642;42.658;23.350;2024-01-25T13:16:10;129.17;;;120.97;;
2035;SDS011;23642;42.658;23.350;2024-01-25T13:18:37;129.23;;;121.03;;
2035;SDS011;23642;42.658;23.350;2024-01-25T13:21:04;126.60;;;118.50;;
2035;SDS011;23642;42.658;23.350;2024-01-25T13:23:31;123.87;;;116.17;;
2035;SDS011;23642;42.658;23.350;2024-01-25T13:25:58;123.73;;;116.03;;
2035;SDS011;23642;42.658;23.350;2024-01-25T13:28:26;124.43;;;116.20;;
2035;SDS011;23642;42.658;23.350;2024-01-25T13:30:56;126.30;;;117.87;;
2035;SDS011;23642;42.658;23.350;2024-01-25T13:33:24;125.17;;;117.33;;
2035;SDS011;23642;42.658;23.350;2024-01-25T13:35:51;124.57;;;116.47;;
2035;SDS011;23642;42.658;23.350;2024-01-25T13:38:18;123.13;;;115.03;;
2035;SDS011;23642;42.658;23.350;2024-01-25T13:40:44;124.27;;;116.40;;
2035;SDS011;23642;42.658;23.350;2024-01-25T13:43:11;131.03;;;119.63;;
2035;SDS011;23642;42.658;23.350;2024-01-25T13:45:39;122.50;;;114.53;;
2035;SDS011;23642;42.658;23.350;2024-01-25T13:48:06;123.87;;;115.87;;
2035;SDS011;23642;42.658;23.350;2024-01-25T13:50:33;125.60;;;117.40;;
2035;SDS011;23642;42.658;23.350;2024-01-25T13:53:01;126.00;;;117.87;;
2035;SDS011;23642;42.658;23.350;2024-01-25T13:55:28;128.17;;;120.10;;
2035;SDS011;23642;42.658;23.350;2024-01-25T13:57:54;127.80;;;119.70;;
2035;SDS011;23642;42.658;23.350;2024-01-25T14:00:21;127.77;;;119.77;;
2035;SDS011;23642;42.658;23.350;2024-01-25T14:02:49;125.47;;;117.30;;
2035;SDS011;23642;42.658;23.350;2024-01-25T14:05:16;125.83;;;117.70;;